createdAt,value
2023-04-02T00:01:04.818Z,96372.22
2023-04-02T00:03:42.453Z,96371.47
2023-04-02T00:06:32.743Z,96376.81
2023-04-02T00:09:07.362Z,96379.50
2023-04-02T00:11:38.829Z,96382.16
2023-04-02T00:14:13.365Z,96383.69
2023-04-02T00:16:42.728Z,96387.09
2023-04-02T00:19:18.248Z,96379.38
2023-04-02T00:21:50.770Z,96375.88
2023-04-02T00:24:21.883Z,96381.63
2023-04-02T00:26:51.587Z,96389.28
2023-04-02T00:29:19.861Z,96382.31
2023-04-02T00:31:49.157Z,96387.31
2023-04-02T00:34:37.260Z,96382.28
2023-04-02T00:37:05.248Z,96383.44
2023-04-02T00:39:39.624Z,96381.50
2023-04-02T00:42:06.428Z,96378.00
2023-04-02T00:44:38.716Z,96384.56
2023-04-02T00:47:22.677Z,96389.56
2023-04-02T00:49:57.040Z,96386.50
2023-04-02T00:52:27.887Z,96384.50
2023-04-02T00:55:15.740Z,96384.88
2023-04-02T00:57:48.150Z,96387.16
2023-04-02T01:00:23.921Z,96386.00
2023-04-02T01:03:13.180Z,96383.69
2023-04-02T01:05:42.534Z,96382.97
2023-04-02T01:08:21.886Z,96379.47
2023-04-02T01:11:07.360Z,96384.91
2023-04-02T01:13:48.104Z,96377.19
2023-04-02T01:16:38.940Z,96384.47
2023-04-02T01:19:42.408Z,96387.53
2023-04-02T01:22:42.288Z,96387.53
2023-04-02T01:25:19.353Z,96378.66
2023-04-02T01:27:58.746Z,96381.38
2023-04-02T01:30:25.658Z,96383.69
2023-04-02T01:32:55.502Z,96378.00
2023-04-02T01:35:27.647Z,96376.81
2023-04-02T01:38:10.540Z,96371.91
2023-04-02T01:40:52.761Z,96375.00
2023-04-02T01:43:44.341Z,96374.34
2023-04-02T01:46:26.191Z,96371.28
2023-04-02T01:48:54.576Z,96372.81
2023-04-02T01:51:33.396Z,96370.88
2023-04-02T01:54:03.980Z,96373.63
2023-04-02T01:56:33.002Z,96385.97
2023-04-02T01:59:02.904Z,96381.75
2023-04-02T02:01:40.987Z,96380.28
2023-04-02T02:04:13.777Z,96381.00
2023-04-02T02:06:43.040Z,96388.34
2023-04-02T02:09:18.240Z,96381.44
2023-04-02T02:11:44.935Z,96388.66
2023-04-02T02:14:28.942Z,96385.97
2023-04-02T02:16:58.123Z,96389.84
2023-04-02T02:19:39.598Z,96397.09
2023-04-02T02:22:20.943Z,96397.47
2023-04-02T02:24:48.275Z,96391.00
2023-04-02T02:27:42.695Z,96392.53
2023-04-02T02:30:15.568Z,96394.88
2023-04-02T02:33:28.888Z,96394.16
2023-04-02T02:36:06.484Z,96402.69
2023-04-02T02:39:08.237Z,96410.34
2023-04-02T02:41:41.456Z,96412.75
2023-04-02T02:44:11.152Z,96418.94
2023-04-02T02:47:02.610Z,96416.19
2023-04-02T02:49:40.739Z,96408.88
2023-04-02T02:52:13.008Z,96400.44
2023-04-02T02:54:44.668Z,96404.66
2023-04-02T02:57:17.685Z,96397.75
2023-04-02T02:59:51.584Z,96413.53
2023-04-02T03:02:18.774Z,96414.78
2023-04-02T03:04:53.114Z,96416.28
2023-04-02T03:07:30.290Z,96423.38
2023-04-02T03:10:18.150Z,96430.94
2023-04-02T03:13:05.220Z,96428.91
2023-04-02T03:15:59.256Z,96430.81
2023-04-02T03:18:47.997Z,96434.22
2023-04-02T03:21:20.395Z,96442.25
2023-04-02T03:23:57.803Z,96441.47
2023-04-02T03:26:35.694Z,96444.53
2023-04-02T03:29:16.407Z,96439.16
2023-04-02T03:31:53.731Z,96436.84
2023-04-02T03:34:34.222Z,96435.69
2023-04-02T03:37:16.955Z,96440.63
2023-04-02T03:40:26.606Z,96439.88
2023-04-02T03:43:14.884Z,96443.38
2023-04-02T03:45:50.796Z,96446.38
2023-04-02T03:48:28.693Z,96447.91
2023-04-02T03:51:06.797Z,96446.44
2023-04-02T03:53:34.046Z,96447.25
2023-04-02T03:56:04.335Z,96459.19
2023-04-02T03:58:41.153Z,96455.38
2023-04-02T04:01:34.471Z,96451.97
2023-04-02T04:04:10.786Z,96451.13
2023-04-02T04:06:42.716Z,96454.59
2023-04-02T04:09:16.103Z,96456.13
2023-04-02T04:11:51.760Z,96457.69
2023-04-02T04:14:21.312Z,96458.44
2023-04-02T04:17:13.920Z,96462.66
2023-04-02T04:19:46.227Z,96463.81
2023-04-02T04:22:30.502Z,96466.88
2023-04-02T04:24:59.028Z,96460.34
2023-04-02T04:27:52.863Z,96469.19
2023-04-02T04:30:27.373Z,96474.16
2023-04-02T04:32:58.874Z,96474.50
2023-04-02T04:35:26.149Z,96469.13
2023-04-02T04:38:27.826Z,96481.44
2023-04-02T04:40:58.997Z,96486.66
2023-04-02T04:43:40.825Z,96482.69
2023-04-02T04:46:16.006Z,96491.25
2023-04-02T04:48:48.763Z,96491.16
2023-04-02T04:51:26.619Z,96504.56
2023-04-02T04:53:55.308Z,96508.38
2023-04-02T04:56:27.410Z,96503.75
2023-04-02T04:58:56.923Z,96505.66
2023-04-02T05:01:27.353Z,96507.22
2023-04-02T05:04:06.728Z,96520.69
2023-04-02T05:06:45.090Z,96513.38
2023-04-02T05:10:09.487Z,96515.28
2023-04-02T05:12:54.501Z,96523.75
2023-04-02T05:15:36.587Z,96515.63
2023-04-02T05:18:23.484Z,96511.41
2023-04-02T05:21:08.082Z,96520.72
2023-04-02T05:23:40.223Z,96527.97
2023-04-02T05:26:15.187Z,96530.31
2023-04-02T05:28:50.831Z,96529.19
2023-04-02T05:31:26.345Z,96538.41
2023-04-02T05:33:55.071Z,96532.91
2023-04-02T05:36:27.905Z,96534.03
2023-04-02T05:38:58.526Z,96535.88
2023-04-02T05:41:36.903Z,96533.19
2023-04-02T05:44:08.902Z,96532.75
2023-04-02T05:46:42.471Z,96529.31
2023-04-02T05:49:22.595Z,96542.38
2023-04-02T05:52:00.100Z,96537.28
2023-04-02T05:54:55.609Z,96541.09
2023-04-02T05:57:44.547Z,96544.16
2023-04-02T06:00:25.293Z,96547.16
2023-04-02T06:03:00.222Z,96542.88
2023-04-02T06:05:34.521Z,96535.94
2023-04-02T06:08:25.671Z,96540.56
2023-04-02T06:11:07.512Z,96542.81
2023-04-02T06:13:34.318Z,96543.91
2023-04-02T06:16:05.951Z,96549.59
2023-04-02T06:18:36.155Z,96550.50
2023-04-02T06:21:05.936Z,96553.41
2023-04-02T06:23:51.263Z,96556.41
2023-04-02T06:26:43.919Z,96558.25
2023-04-02T06:29:40.135Z,96570.91
2023-04-02T06:32:11.490Z,96567.56
2023-04-02T06:34:44.865Z,96565.22
2023-04-02T06:37:37.729Z,96571.28
2023-04-02T06:40:17.453Z,96568.53
2023-04-02T06:42:47.598Z,96570.19
2023-04-02T06:45:26.647Z,96579.81
2023-04-02T06:47:59.863Z,96583.69
2023-04-02T06:50:36.032Z,96580.56
2023-04-02T06:53:06.505Z,96588.31
2023-04-02T06:55:56.956Z,96593.06
2023-04-02T06:58:26.034Z,96598.69
2023-04-02T07:00:52.940Z,96596.22
2023-04-02T07:03:28.558Z,96595.41
2023-04-02T07:05:59.188Z,96603.03
2023-04-02T07:08:25.934Z,96597.84
2023-04-02T07:10:55.466Z,96607.22
2023-04-02T07:13:23.475Z,96612.63
2023-04-02T07:15:54.981Z,96614.22
2023-04-02T07:18:24.035Z,96614.00
2023-04-02T07:20:53.349Z,96614.25
2023-04-02T07:23:21.231Z,96620.50
2023-04-02T07:25:53.089Z,96621.88
2023-04-02T07:28:22.518Z,96621.19
2023-04-02T07:30:50.571Z,96628.00
2023-04-02T07:33:23.895Z,96628.81
2023-04-02T07:35:57.433Z,96625.59
2023-04-02T07:38:24.204Z,96628.13
2023-04-02T07:40:53.045Z,96627.78
2023-04-02T07:43:23.161Z,96628.09
2023-04-02T07:45:51.923Z,96625.94
2023-04-02T07:48:21.611Z,96638.84
2023-04-02T07:50:48.406Z,96640.44
2023-04-02T07:53:30.089Z,96634.50
2023-04-02T07:55:59.003Z,96648.09
2023-04-02T07:58:25.956Z,96646.25
2023-04-02T08:00:52.956Z,96654.25
2023-04-02T08:03:22.035Z,96661.41
2023-04-02T08:05:57.635Z,96661.91
2023-04-02T08:08:25.601Z,96663.44
2023-04-02T08:10:52.156Z,96660.88
2023-04-02T08:13:19.181Z,96663.75
2023-04-02T08:15:48.190Z,96669.16
2023-04-02T08:18:17.784Z,96670.00
2023-04-02T08:20:44.329Z,96670.66
2023-04-02T08:23:17.090Z,96669.47
2023-04-02T08:25:44.848Z,96669.81
2023-04-02T08:28:11.779Z,96675.22
2023-04-02T08:30:38.600Z,96679.47
2023-04-02T08:33:07.767Z,96682.50
2023-04-02T08:35:34.926Z,96686.38
2023-04-02T08:38:04.007Z,96682.38
2023-04-02T08:40:41.667Z,96689.06
2023-04-02T08:43:10.998Z,96683.91
2023-04-02T08:46:06.581Z,96699.25
2023-04-02T08:48:42.450Z,96684.50
2023-04-02T08:51:21.948Z,96687.97
2023-04-02T08:53:49.374Z,96685.06
2023-04-02T08:56:37.342Z,96690.22
2023-04-02T08:59:21.512Z,96696.38
2023-04-02T09:02:00.308Z,96692.84
2023-04-02T09:04:28.074Z,96702.94
2023-04-02T09:06:59.883Z,96701.75
2023-04-02T09:09:38.353Z,96708.53
2023-04-02T09:12:06.995Z,96705.16
2023-04-02T09:14:42.238Z,96705.03
2023-04-02T09:17:24.587Z,96709.78
2023-04-02T09:20:19.218Z,96714.38
2023-04-02T09:22:48.595Z,96713.97
2023-04-02T09:25:19.528Z,96715.06
2023-04-02T09:27:49.772Z,96714.22
2023-04-02T09:30:43.465Z,96712.16
2023-04-02T09:33:13.020Z,96721.41
2023-04-02T09:35:59.898Z,96723.72
2023-04-02T09:38:32.911Z,96722.34
2023-04-02T09:41:06.626Z,96717.56
2023-04-02T09:43:41.144Z,96726.31
2023-04-02T09:46:17.480Z,96724.91
2023-04-02T09:48:53.206Z,96722.56
2023-04-02T09:51:23.086Z,96725.03
2023-04-02T09:54:07.625Z,96733.09
2023-04-02T09:56:39.555Z,96731.47
2023-04-02T09:59:22.784Z,96733.75
2023-04-02T10:01:55.033Z,96726.69
2023-04-02T10:04:38.673Z,96731.38
2023-04-02T10:07:06.567Z,96728.97
2023-04-02T10:09:36.326Z,96730.34
2023-04-02T10:12:06.806Z,96739.22
2023-04-02T10:14:37.564Z,96742.38
2023-04-02T10:17:18.946Z,96737.63
2023-04-02T10:19:59.146Z,96745.38
2023-04-02T10:22:28.405Z,96745.47
2023-04-02T10:24:57.652Z,96747.09
2023-04-02T10:27:37.619Z,96747.38
2023-04-02T10:30:16.460Z,96742.44
2023-04-02T10:32:56.630Z,96745.41
2023-04-02T10:35:59.606Z,96749.59
2023-04-02T10:38:42.657Z,96748.88
2023-04-02T10:41:27.798Z,96744.97
2023-04-02T10:44:29.851Z,96749.94
2023-04-02T10:47:02.205Z,96755.28
2023-04-02T10:50:06.968Z,96757.00
2023-04-02T10:52:43.872Z,96758.69
2023-04-02T10:55:29.036Z,96758.81
2023-04-02T10:58:03.087Z,96764.91
2023-04-02T11:00:35.111Z,96762.13
2023-04-02T11:03:11.424Z,96764.41
2023-04-02T11:05:54.522Z,96762.72
2023-04-02T11:08:43.828Z,96766.16
2023-04-02T11:11:15.064Z,96771.94
2023-04-02T11:14:24.995Z,96769.91
2023-04-02T11:16:54.347Z,96764.09
2023-04-02T11:19:21.293Z,96768.94
2023-04-02T11:21:58.675Z,96764.22
2023-04-02T11:24:32.960Z,96767.66
2023-04-02T11:27:25.038Z,96769.75
2023-04-02T11:30:06.770Z,96760.44
2023-04-02T11:32:36.421Z,96768.38
2023-04-02T11:35:33.704Z,96765.63
2023-04-02T11:38:12.384Z,96766.72
2023-04-02T11:40:58.059Z,96768.88
2023-04-02T11:43:37.131Z,96773.59
2023-04-02T11:46:08.509Z,96772.63
2023-04-02T11:48:37.943Z,96769.03
2023-04-02T11:51:25.479Z,96774.81
2023-04-02T11:53:54.284Z,96774.56
2023-04-02T11:56:39.534Z,96778.06
2023-04-02T11:59:32.947Z,96781.34
2023-04-02T12:02:17.157Z,96779.56
2023-04-02T12:05:14.627Z,96782.22
2023-04-02T12:07:58.583Z,96782.25
2023-04-02T12:10:51.570Z,96785.09
2023-04-02T12:13:26.063Z,96786.47
2023-04-02T12:15:52.767Z,96786.38
2023-04-02T12:18:32.759Z,96780.72
2023-04-02T12:20:59.472Z,96780.19
2023-04-02T12:23:31.376Z,96769.22
2023-04-02T12:26:08.749Z,96773.03
2023-04-02T12:28:38.131Z,96777.66
2023-04-02T12:31:14.329Z,96775.34
2023-04-02T12:33:42.586Z,96774.19
2023-04-02T12:36:14.137Z,96780.63
2023-04-02T12:38:45.662Z,96786.47
2023-04-02T12:41:24.549Z,96781.13
2023-04-02T12:44:02.331Z,96774.94
2023-04-02T12:46:31.252Z,96774.22
2023-04-02T12:49:26.373Z,96779.19
2023-04-02T12:51:54.565Z,96776.06
2023-04-02T12:54:23.850Z,96775.81
2023-04-02T12:56:51.537Z,96780.25
2023-04-02T12:59:42.879Z,96781.34
2023-04-02T13:02:27.876Z,96777.31
2023-04-02T13:05:03.827Z,96773.19
2023-04-02T13:07:33.620Z,96775.91
2023-04-02T13:10:05.787Z,96772.13
2023-04-02T13:12:39.967Z,96772.88
2023-04-02T13:15:20.172Z,96768.75
2023-04-02T13:18:01.339Z,96771.09
2023-04-02T13:20:29.268Z,96765.13
2023-04-02T13:22:56.243Z,96760.13
2023-04-02T13:25:32.083Z,96767.78
2023-04-02T13:28:02.048Z,96768.63
2023-04-02T13:30:31.923Z,96769.50
2023-04-02T13:32:58.565Z,96766.59
2023-04-02T13:35:27.631Z,96765.56
2023-04-02T13:37:54.267Z,96770.72
2023-04-02T13:40:23.564Z,96769.25
2023-04-02T13:42:54.850Z,96770.00
2023-04-02T13:45:26.827Z,96771.06
2023-04-02T13:47:53.978Z,96770.66
2023-04-02T13:50:24.726Z,96776.53
2023-04-02T13:52:54.552Z,96780.97
2023-04-02T13:55:28.818Z,96773.31
2023-04-02T13:57:58.295Z,96778.03
2023-04-02T14:00:25.720Z,96782.13
2023-04-02T14:03:01.439Z,96775.09
2023-04-02T14:05:53.716Z,96778.19
2023-04-02T14:08:28.865Z,96773.44
2023-04-02T14:11:13.921Z,96774.94
2023-04-02T14:13:51.739Z,96773.81
2023-04-02T14:16:28.567Z,96773.31
2023-04-02T14:19:14.006Z,96776.78
2023-04-02T14:21:43.624Z,96774.22
2023-04-02T14:24:18.091Z,96778.66
2023-04-02T14:27:26.864Z,96782.19
2023-04-02T14:30:13.716Z,96783.03
2023-04-02T14:32:56.761Z,96784.00
2023-04-02T14:35:35.080Z,96789.34
2023-04-02T14:38:21.533Z,96786.41
2023-04-02T14:40:52.477Z,96793.00
2023-04-02T14:43:35.891Z,96789.72
2023-04-02T14:46:06.666Z,96793.44
2023-04-02T14:48:52.083Z,96797.09
2023-04-02T14:51:40.926Z,96794.94
2023-04-02T14:54:11.753Z,96796.88
2023-04-02T14:56:47.755Z,96797.66
2023-04-02T14:59:37.567Z,96796.19
2023-04-02T15:02:14.107Z,96797.66
2023-04-02T15:04:46.427Z,96797.66
2023-04-02T15:07:22.169Z,96801.41
2023-04-02T15:10:04.010Z,96803.88
2023-04-02T15:12:33.822Z,96801.91
2023-04-02T15:15:42.699Z,96801.59
2023-04-02T15:18:17.668Z,96807.47
2023-04-02T15:20:59.363Z,96801.16
2023-04-02T15:23:40.873Z,96803.81
2023-04-02T15:26:23.794Z,96810.47
2023-04-02T15:29:00.085Z,96807.13
2023-04-02T15:31:30.951Z,96810.44
2023-04-02T15:34:30.360Z,96809.41
2023-04-02T15:37:21.877Z,96820.13
2023-04-02T15:40:18.894Z,96807.31
2023-04-02T15:43:15.178Z,96822.38
2023-04-02T15:45:53.196Z,96813.97
2023-04-02T15:48:37.972Z,96821.13
2023-04-02T15:51:27.915Z,96819.94
2023-04-02T15:54:07.704Z,96823.78
2023-04-02T15:56:46.240Z,96826.34
2023-04-02T15:59:22.122Z,96822.16
2023-04-02T16:02:27.745Z,96827.81
2023-04-02T16:05:14.394Z,96827.78
2023-04-02T16:07:54.461Z,96826.50
2023-04-02T16:10:38.000Z,96826.06
2023-04-02T16:13:17.251Z,96823.91
2023-04-02T16:15:51.617Z,96832.78
2023-04-02T16:18:46.394Z,96837.41
2023-04-02T16:21:19.236Z,96841.81
2023-04-02T16:23:48.366Z,96844.75
2023-04-02T16:26:32.911Z,96852.25
2023-04-02T16:29:11.554Z,96852.63
2023-04-02T16:31:55.636Z,96852.09
2023-04-02T16:34:59.489Z,96857.44
2023-04-02T16:37:48.814Z,96860.09
2023-04-02T16:40:37.560Z,96868.06
2023-04-02T16:43:24.234Z,96875.91
2023-04-02T16:46:04.378Z,96877.78
2023-04-02T16:48:53.752Z,96888.19
2023-04-02T16:51:38.108Z,96886.34
2023-04-02T16:54:27.275Z,96890.47
2023-04-02T16:57:11.718Z,96905.63
2023-04-02T16:59:55.761Z,96909.19
2023-04-02T17:02:57.625Z,96916.50
2023-04-02T17:05:59.382Z,96912.72
2023-04-02T17:08:31.839Z,96914.50
2023-04-02T17:11:07.061Z,96913.00
2023-04-02T17:13:42.603Z,96922.25
2023-04-02T17:16:12.168Z,96930.56
2023-04-02T17:18:42.557Z,96934.00
2023-04-02T17:21:14.872Z,96944.91
2023-04-02T17:23:55.802Z,96947.38
2023-04-02T17:26:28.593Z,96955.69
2023-04-02T17:28:58.191Z,96955.56
2023-04-02T17:31:30.855Z,96957.56
2023-04-02T17:34:00.568Z,96961.56
2023-04-02T17:36:59.846Z,96972.94
2023-04-02T17:39:47.137Z,96969.53
2023-04-02T17:42:14.373Z,96968.22
2023-04-02T17:44:43.917Z,96966.00
2023-04-02T17:47:13.399Z,96980.31
2023-04-02T17:50:17.595Z,96975.53
2023-04-02T17:52:53.444Z,96979.78
2023-04-02T17:55:32.448Z,96991.53
2023-04-02T17:58:27.546Z,96985.66
2023-04-02T18:01:14.654Z,96993.03
2023-04-02T18:04:06.374Z,96996.94
2023-04-02T18:06:58.194Z,97006.75
2023-04-02T18:09:37.338Z,97007.50
2023-04-02T18:12:12.920Z,97009.03
2023-04-02T18:15:04.006Z,97020.06
2023-04-02T18:18:01.795Z,97020.91
2023-04-02T18:20:55.409Z,97031.41
2023-04-02T18:23:55.491Z,97037.91
2023-04-02T18:26:45.908Z,97036.06
2023-04-02T18:29:27.574Z,97044.88
2023-04-02T18:32:15.306Z,97044.47
2023-04-02T18:35:23.467Z,97053.78
2023-04-02T18:38:18.938Z,97056.19
2023-04-02T18:41:24.428Z,97062.31
2023-04-02T18:44:30.247Z,97065.66
2023-04-02T18:47:09.551Z,97077.00
2023-04-02T18:49:39.356Z,97080.91
2023-04-02T18:52:17.347Z,97078.22
2023-04-02T18:54:50.056Z,97085.22
2023-04-02T18:57:25.377Z,97107.22
2023-04-02T19:00:01.938Z,97100.16
2023-04-02T19:02:31.367Z,97108.00
2023-04-02T19:05:12.710Z,97108.06
2023-04-02T19:07:43.284Z,97103.16
2023-04-02T19:10:37.708Z,97107.75
2023-04-02T19:13:19.903Z,97110.91
2023-04-02T19:16:02.282Z,97111.00
2023-04-02T19:19:06.375Z,97115.38
2023-04-02T19:21:53.799Z,97127.75
2023-04-02T19:24:23.288Z,97133.19
2023-04-02T19:27:14.130Z,97137.72
2023-04-02T19:30:06.419Z,97149.09
2023-04-02T19:32:39.924Z,97151.16
2023-04-02T19:35:27.068Z,97157.81
2023-04-02T19:38:18.506Z,97154.63
2023-04-02T19:41:21.089Z,97169.09
2023-04-02T19:43:50.890Z,97168.69
2023-04-02T19:46:17.571Z,97176.44
2023-04-02T19:49:28.537Z,97171.41
2023-04-02T19:51:57.396Z,97172.63
2023-04-02T19:54:23.939Z,97170.78
2023-04-02T19:56:50.786Z,97171.53
2023-04-02T19:59:18.575Z,97172.00
2023-04-02T20:01:46.730Z,97170.91
2023-04-02T20:04:14.474Z,97175.88
2023-04-02T20:06:46.010Z,97177.34
2023-04-02T20:09:12.593Z,97183.09
2023-04-02T20:11:39.341Z,97184.25
2023-04-02T20:14:08.416Z,97185.06
2023-04-02T20:16:38.648Z,97182.38
2023-04-02T20:19:07.584Z,97184.28
2023-04-02T20:21:38.237Z,97189.41
2023-04-02T20:24:06.726Z,97195.19
2023-04-02T20:26:34.911Z,97205.22
2023-04-02T20:29:04.307Z,97205.25
2023-04-02T20:31:34.295Z,97209.19
2023-04-02T20:34:02.568Z,97206.47
2023-04-02T20:36:31.741Z,97210.25
2023-04-02T20:39:00.786Z,97209.13
2023-04-02T20:41:30.143Z,97207.25
2023-04-02T20:43:56.764Z,97222.66
2023-04-02T20:46:23.367Z,97223.47
2023-04-02T20:48:49.969Z,97224.72
2023-04-02T20:51:18.986Z,97224.84
2023-04-02T20:53:47.835Z,97229.47
2023-04-02T20:56:16.464Z,97235.72
2023-04-02T20:58:45.361Z,97231.84
2023-04-02T21:01:26.674Z,97239.53
2023-04-02T21:04:02.180Z,97232.94
2023-04-02T21:06:34.085Z,97246.09
2023-04-02T21:09:08.503Z,97243.34
2023-04-02T21:11:36.459Z,97238.69
2023-04-02T21:14:05.556Z,97248.34
2023-04-02T21:16:32.407Z,97239.19
2023-04-02T21:19:07.918Z,97239.59
2023-04-02T21:21:36.069Z,97241.13
2023-04-02T21:24:07.697Z,97248.09
2023-04-02T21:26:42.665Z,97245.41
2023-04-02T21:29:11.600Z,97243.38
2023-04-02T21:31:40.162Z,97244.47
2023-04-02T21:34:08.536Z,97244.44
2023-04-02T21:36:39.358Z,97243.31
2023-04-02T21:39:08.623Z,97247.56
2023-04-02T21:41:41.022Z,97238.31
2023-04-02T21:44:09.198Z,97238.69
2023-04-02T21:46:39.140Z,97238.44
2023-04-02T21:49:08.137Z,97246.53
2023-04-02T21:51:39.292Z,97248.41
2023-04-02T21:54:06.337Z,97250.34
2023-04-02T21:56:39.445Z,97242.59
2023-04-02T21:59:07.691Z,97243.44
2023-04-02T22:01:38.308Z,97242.78
2023-04-02T22:04:07.734Z,97248.59
2023-04-02T22:06:39.728Z,97254.00
2023-04-02T22:09:13.261Z,97247.03
2023-04-02T22:11:59.945Z,97246.16
2023-04-02T22:14:27.542Z,97250.41
2023-04-02T22:16:54.980Z,97250.78
2023-04-02T22:19:21.958Z,97248.06
2023-04-02T22:21:48.560Z,97250.00
2023-04-02T22:24:22.512Z,97252.47
2023-04-02T22:26:49.520Z,97251.22
2023-04-02T22:29:16.681Z,97259.03
2023-04-02T22:31:45.595Z,97260.66
2023-04-02T22:34:14.835Z,97258.34
2023-04-02T22:36:44.385Z,97265.28
2023-04-02T22:39:12.351Z,97261.47
2023-04-02T22:41:41.673Z,97263.75
2023-04-02T22:44:13.652Z,97264.50
2023-04-02T22:46:40.611Z,97262.97
2023-04-02T22:49:11.013Z,97264.56
2023-04-02T22:51:37.539Z,97262.19
2023-04-02T22:54:06.438Z,97266.44
2023-04-02T22:56:37.885Z,97269.13
2023-04-02T22:59:06.766Z,97273.38
2023-04-02T23:01:36.073Z,97274.56
2023-04-02T23:04:04.927Z,97274.97
2023-04-02T23:06:32.028Z,97281.19
2023-04-02T23:09:01.550Z,97274.22
2023-04-02T23:11:28.458Z,97281.56
2023-04-02T23:13:58.295Z,97279.22
2023-04-02T23:16:29.386Z,97273.88
2023-04-02T23:18:57.160Z,97278.91
2023-04-02T23:21:27.012Z,97282.78
2023-04-02T23:23:56.274Z,97278.94
2023-04-02T23:26:29.452Z,97282.00
2023-04-02T23:28:57.741Z,97280.13
2023-04-02T23:31:24.755Z,97285.91
2023-04-02T23:33:52.430Z,97290.53
2023-04-02T23:36:28.856Z,97295.94
2023-04-02T23:38:59.729Z,97294.00
2023-04-02T23:41:29.324Z,97293.25
2023-04-02T23:43:56.821Z,97294.78
2023-04-02T23:46:26.184Z,97289.00
2023-04-02T23:48:53.990Z,97295.16
2023-04-02T23:51:22.845Z,97304.41
2023-04-02T23:53:52.633Z,97302.09
2023-04-02T23:56:23.041Z,97304.78
2023-04-02T23:58:52.237Z,97299.38
